Time;durP1;ratioP1;P1;durP2;ratioP2;P2;SDS_P1;SDS_P2;PMS_P1;PMS_P2;Temp;Humidity;BMP_temperature;BMP_pressure;BME280_temperature;BME280_humidity;BME280_pressure;Samples;Min_cycle;Max_cycle;Signal;HPM_P1;HPM_P2
2023/10/18 00:01:05;;;;;;;18.15;3.03;;;;;;;;;;5013018;28;20765;-76
2023/10/18 00:03:32;;;;;;;16.05;2.70;;;;;;;;;;5011264;28;20412;-77
2023/10/18 00:06:04;;;;;;;17.45;2.78;;;;;;;;;;5018178;28;20435;-76
2023/10/18 00:08:31;;;;;;;18.05;3.10;;;;;;;;;;5013755;28;20489;-76
2023/10/18 00:10:59;;;;;;;17.50;3.00;;;;;;;;;;5001058;28;20424;-77
2023/10/18 00:13:27;;;;;;;17.85;2.85;;;;;;;;;;5015375;28;20646;-78
2023/10/18 00:15:59;;;;;;;16.75;2.90;;;;;;;;;;5014289;28;20409;-77
2023/10/18 00:18:26;;;;;;;16.70;3.20;;;;;;;;;;5014058;28;20417;-76
2023/10/18 00:20:57;;;;;;;17.88;2.80;;;;;;;;;;5014422;28;20444;-77
2023/10/18 00:23:24;;;;;;;19.90;3.20;;;;;;;;;;5014752;28;20408;-76
2023/10/18 00:25:51;;;;;;;17.55;3.30;;;;;;;;;;5014938;28;20447;-75
2023/10/18 00:28:19;;;;;;;17.88;3.25;;;;;;;;;;4997809;28;20427;-76
2023/10/18 00:30:50;;;;;;;18.30;3.83;;;;;;;;;;4996553;28;20421;-77
2023/10/18 00:33:18;;;;;;;18.52;3.42;;;;;;;;;;5012331;28;20409;-75
2023/10/18 00:35:47;;;;;;;18.42;2.92;;;;;;;;;;4996730;28;20408;-77
2023/10/18 00:38:18;;;;;;;16.20;3.30;;;;;;;;;;5014331;28;21181;-77
2023/10/18 00:40:45;;;;;;;17.50;3.10;;;;;;;;;;5014306;28;20420;-76
2023/10/18 00:43:22;;;;;;;18.85;3.20;;;;;;;;;;5010587;28;20448;-76
2023/10/18 00:45:51;;;;;;;17.02;3.17;;;;;;;;;;5013341;28;20428;-75
2023/10/18 00:48:20;;;;;;;17.20;3.40;;;;;;;;;;4996826;28;20409;-76
2023/10/18 00:50:48;;;;;;;17.52;2.80;;;;;;;;;;4979894;28;20420;-75
2023/10/18 00:53:50;;;;;;;19.05;3.22;;;;;;;;;;4998743;28;21075;-77
2023/10/18 00:56:11;;;;;;;20.25;3.30;;;;;;;;;;4993298;28;20416;-76
2023/10/18 00:58:40;;;;;;;16.73;3.00;;;;;;;;;;4996639;28;20428;-76
2023/10/18 01:01:09;;;;;;;17.77;2.80;;;;;;;;;;5015557;28;20415;-77
2023/10/18 01:03:38;;;;;;;17.75;3.33;;;;;;;;;;4996248;28;20880;-76
2023/10/18 01:06:05;;;;;;;18.50;3.47;;;;;;;;;;4984411;28;20411;-76
2023/10/18 01:08:33;;;;;;;16.98;3.40;;;;;;;;;;5012822;28;20408;-76
2023/10/18 01:11:04;;;;;;;16.52;3.13;;;;;;;;;;5015498;28;20436;-78
2023/10/18 01:13:31;;;;;;;17.50;3.28;;;;;;;;;;4996006;28;20976;-76
2023/10/18 01:15:59;;;;;;;20.40;3.50;;;;;;;;;;4998127;28;20527;-78
2023/10/18 01:18:27;;;;;;;17.33;2.90;;;;;;;;;;4996841;28;20478;-77
2023/10/18 01:20:56;;;;;;;17.10;3.33;;;;;;;;;;5011780;28;20433;-76
2023/10/18 01:23:23;;;;;;;18.05;3.42;;;;;;;;;;4996935;28;20468;-76
2023/10/18 01:25:51;;;;;;;17.60;3.33;;;;;;;;;;5015457;28;20408;-76
2023/10/18 01:28:17;;;;;;;17.45;3.20;;;;;;;;;;4994317;28;20417;-76
2023/10/18 01:30:44;;;;;;;16.70;3.10;;;;;;;;;;5000489;28;20889;-77
2023/10/18 01:33:14;;;;;;;18.48;3.40;;;;;;;;;;4997744;28;20424;-75
2023/10/18 01:35:50;;;;;;;20.75;3.20;;;;;;;;;;4979123;28;20519;-76
2023/10/18 01:38:19;;;;;;;18.45;3.45;;;;;;;;;;4995296;28;20428;-75
2023/10/18 01:40:52;;;;;;;17.35;3.60;;;;;;;;;;5010923;28;20440;-75
2023/10/18 01:43:19;;;;;;;18.83;4.07;;;;;;;;;;4996842;28;20440;-76
2023/10/18 01:45:48;;;;;;;18.15;3.58;;;;;;;;;;5014931;28;20411;-76
2023/10/18 01:48:18;;;;;;;17.35;3.45;;;;;;;;;;5011047;28;20431;-77
2023/10/18 01:50:45;;;;;;;17.33;3.00;;;;;;;;;;5012940;28;20467;-74
2023/10/18 01:53:21;;;;;;;17.55;3.22;;;;;;;;;;5013274;28;20495;-77
2023/10/18 01:55:54;;;;;;;18.25;3.60;;;;;;;;;;4999646;28;20416;-78
2023/10/18 01:58:24;;;;;;;18.30;3.20;;;;;;;;;;4994615;28;20421;-77
2023/10/18 02:00:53;;;;;;;19.77;3.72;;;;;;;;;;4993378;28;20420;-75
2023/10/18 02:03:20;;;;;;;16.65;3.38;;;;;;;;;;5008638;28;21034;-76
2023/10/18 02:05:47;;;;;;;17.50;3.33;;;;;;;;;;4996645;28;20413;-76
2023/10/18 02:08:14;;;;;;;19.08;3.90;;;;;;;;;;4993064;28;20901;-76
2023/10/18 02:10:41;;;;;;;17.90;3.28;;;;;;;;;;4993494;28;20761;-75
2023/10/18 02:13:13;;;;;;;16.88;3.20;;;;;;;;;;4990221;28;20985;-79
2023/10/18 02:15:41;;;;;;;17.33;3.13;;;;;;;;;;4996369;28;20420;-76
2023/10/18 02:18:08;;;;;;;19.90;3.30;;;;;;;;;;5008892;28;20408;-76
2023/10/18 02:20:37;;;;;;;17.67;3.17;;;;;;;;;;4990724;28;20505;-77
2023/10/18 02:23:11;;;;;;;16.08;2.78;;;;;;;;;;4999596;28;20567;-77
2023/10/18 02:28:22;;;;;;;16.95;3.00;;;;;;;;;;4993757;28;20519;-77
2023/10/18 02:30:57;;;;;;;17.45;2.88;;;;;;;;;;4997201;28;20459;-76
2023/10/18 02:33:26;;;;;;;16.40;3.00;;;;;;;;;;4992529;28;20955;-75
2023/10/18 02:35:57;;;;;;;17.50;3.00;;;;;;;;;;5010798;28;20666;-77
2023/10/18 02:38:24;;;;;;;17.73;3.15;;;;;;;;;;5012959;28;20409;-75
2023/10/18 02:40:50;;;;;;;19.40;2.97;;;;;;;;;;4989544;28;20909;-77
2023/10/18 02:43:18;;;;;;;17.80;3.10;;;;;;;;;;4980175;28;20424;-78
2023/10/18 02:45:51;;;;;;;18.27;3.17;;;;;;;;;;4994302;28;20426;-75
2023/10/18 02:48:23;;;;;;;16.92;3.00;;;;;;;;;;4969674;28;20512;-75
2023/10/18 02:50:54;;;;;;;18.45;2.70;;;;;;;;;;5011094;28;20412;-76
2023/10/18 02:53:20;;;;;;;17.13;3.40;;;;;;;;;;4995000;28;20412;-78
2023/10/18 02:55:49;;;;;;;19.17;3.08;;;;;;;;;;4999555;28;20821;-76
2023/10/18 02:58:16;;;;;;;16.48;2.67;;;;;;;;;;4990764;28;20438;-77
2023/10/18 03:00:44;;;;;;;18.02;3.13;;;;;;;;;;4996148;28;20438;-77
2023/10/18 03:03:12;;;;;;;17.90;3.45;;;;;;;;;;4997642;28;20419;-78
2023/10/18 03:05:40;;;;;;;17.98;3.15;;;;;;;;;;5014791;28;20455;-75
2023/10/18 03:08:11;;;;;;;17.58;3.10;;;;;;;;;;4999398;28;21141;-76
2023/10/18 03:10:44;;;;;;;17.00;3.10;;;;;;;;;;4997365;28;20424;-78
2023/10/18 03:13:13;;;;;;;18.75;3.30;;;;;;;;;;5011555;28;20414;-76
2023/10/18 03:15:52;;;;;;;16.80;2.90;;;;;;;;;;5013298;28;20407;-77
2023/10/18 03:18:27;;;;;;;16.55;3.03;;;;;;;;;;4997790;28;20425;-76
2023/10/18 03:20:57;;;;;;;18.17;3.10;;;;;;;;;;4995717;28;20460;-76
2023/10/18 03:23:26;;;;;;;17.55;3.28;;;;;;;;;;5013891;28;20412;-77
2023/10/18 03:25:59;;;;;;;17.25;3.28;;;;;;;;;;4987127;28;20506;-76
2023/10/18 03:28:36;;;;;;;17.50;3.55;;;;;;;;;;4995806;28;20444;-78
2023/10/18 03:31:16;;;;;;;18.00;2.90;;;;;;;;;;4983242;28;20773;-77
2023/10/18 03:33:45;;;;;;;19.65;3.50;;;;;;;;;;5013500;28;20448;-77
2023/10/18 03:36:25;;;;;;;16.40;3.10;;;;;;;;;;4995071;28;20741;-77
2023/10/18 03:38:55;;;;;;;17.48;3.10;;;;;;;;;;4994911;28;20861;-76
2023/10/18 03:41:25;;;;;;;19.98;3.78;;;;;;;;;;4996320;28;20417;-77
2023/10/18 03:44:06;;;;;;;16.20;2.80;;;;;;;;;;5005550;28;20448;-76
2023/10/18 03:46:38;;;;;;;18.10;3.90;;;;;;;;;;4996765;28;20540;-77
2023/10/18 03:49:10;;;;;;;16.10;3.10;;;;;;;;;;4995579;28;20418;-76
2023/10/18 03:51:40;;;;;;;16.50;2.90;;;;;;;;;;4987636;28;20456;-77
2023/10/18 03:54:13;;;;;;;16.85;3.03;;;;;;;;;;5013760;28;20837;-77
2023/10/18 03:56:42;;;;;;;19.48;3.40;;;;;;;;;;5013793;28;20407;-75
2023/10/18 04:04:36;;;;;;;16.52;2.88;;;;;;;;;;5011434;28;20751;-77
2023/10/18 04:07:12;;;;;;;17.98;3.20;;;;;;;;;;4997739;28;20420;-75
2023/10/18 04:09:40;;;;;;;16.98;3.45;;;;;;;;;;5013193;28;20417;-77
2023/10/18 04:12:08;;;;;;;18.10;3.08;;;;;;;;;;5013118;28;20408;-76
2023/10/18 04:14:35;;;;;;;18.20;3.30;;;;;;;;;;5011883;28;20419;-77
2023/10/18 04:17:09;;;;;;;16.58;3.00;;;;;;;;;;5011523;28;20423;-78
2023/10/18 04:19:36;;;;;;;19.08;3.20;;;;;;;;;;4997220;28;20424;-76
2023/10/18 04:22:05;;;;;;;19.17;3.20;;;;;;;;;;5014510;28;20444;-78
2023/10/18 04:24:33;;;;;;;17.05;3.38;;;;;;;;;;4995911;28;20428;-79
2023/10/18 04:27:04;;;;;;;17.30;3.00;;;;;;;;;;5013559;28;20415;-77
2023/10/18 04:29:33;;;;;;;16.73;2.97;;;;;;;;;;5011788;28;20412;-78
2023/10/18 04:32:03;;;;;;;16.20;2.70;;;;;;;;;;4990832;28;20415;-77
2023/10/18 04:34:33;;;;;;;16.23;2.70;;;;;;;;;;5010510;28;20408;-77
2023/10/18 04:37:05;;;;;;;17.80;3.10;;;;;;;;;;4998700;28;20420;-76
2023/10/18 04:39:34;;;;;;;17.75;3.15;;;;;;;;;;5008006;28;20414;-76
2023/10/18 04:42:03;;;;;;;16.85;3.00;;;;;;;;;;5010501;28;20408;-76
2023/10/18 04:44:34;;;;;;;17.10;3.17;;;;;;;;;;4994599;28;20413;-74
2023/10/18 04:47:14;;;;;;;16.65;3.38;;;;;;;;;;4984953;28;20417;-76
2023/10/18 04:49:41;;;;;;;17.70;3.28;;;;;;;;;;5009243;28;20800;-75
2023/10/18 04:52:08;;;;;;;16.30;2.80;;;;;;;;;;4977383;28;20425;-77
2023/10/18 04:54:47;;;;;;;20.10;4.03;;;;;;;;;;5000466;28;20896;-76
2023/10/18 04:57:17;;;;;;;19.60;3.90;;;;;;;;;;5012029;28;20813;-75
2023/10/18 04:59:47;;;;;;;16.65;3.22;;;;;;;;;;5008568;28;20515;-77
2023/10/18 05:02:17;;;;;;;16.25;3.17;;;;;;;;;;5008144;28;20416;-77
2023/10/18 05:04:46;;;;;;;17.30;3.10;;;;;;;;;;5012282;28;20496;-77
2023/10/18 05:07:17;;;;;;;17.77;3.25;;;;;;;;;;4998168;28;20419;-76
2023/10/18 05:09:45;;;;;;;19.30;4.60;;;;;;;;;;5008964;28;20425;-76
2023/10/18 05:14:44;;;;;;;16.87;3.60;;;;;;;;;;5013764;28;20419;-75
2023/10/18 05:17:23;;;;;;;19.25;3.58;;;;;;;;;;5009402;28;20459;-76
2023/10/18 05:19:51;;;;;;;18.65;3.90;;;;;;;;;;4998379;28;20417;-77
2023/10/18 05:22:24;;;;;;;20.13;3.80;;;;;;;;;;4993289;28;20761;-76
2023/10/18 05:24:56;;;;;;;18.10;3.80;;;;;;;;;;5010137;28;20484;-74
2023/10/18 05:27:27;;;;;;;18.35;3.75;;;;;;;;;;4996127;28;20424;-77
2023/10/18 05:29:57;;;;;;;18.30;3.77;;;;;;;;;;5010109;28;20493;-79
2023/10/18 05:35:26;;;;;;;18.52;4.32;;;;;;;;;;4991563;28;20418;-76
2023/10/18 05:37:59;;;;;;;17.80;4.05;;;;;;;;;;5008700;28;20974;-77
2023/10/18 05:43:04;;;;;;;17.83;3.70;;;;;;;;;;5010908;28;20421;-77
2023/10/18 05:45:33;;;;;;;17.48;3.38;;;;;;;;;;4994945;28;20413;-77
2023/10/18 05:48:05;;;;;;;17.60;4.18;;;;;;;;;;4997787;28;20428;-77
2023/10/18 05:50:34;;;;;;;18.47;3.80;;;;;;;;;;5011948;28;20443;-76
2023/10/18 05:53:06;;;;;;;17.45;3.50;;;;;;;;;;4994153;28;20896;-75
2023/10/18 05:55:38;;;;;;;18.48;3.95;;;;;;;;;;5009224;28;20422;-77
2023/10/18 05:58:04;;;;;;;17.45;3.60;;;;;;;;;;4991373;28;20405;-76
2023/10/18 06:00:37;;;;;;;19.50;3.75;;;;;;;;;;5009710;28;20511;-78
2023/10/18 06:03:07;;;;;;;18.35;3.90;;;;;;;;;;5008500;28;20444;-78
2023/10/18 06:05:33;;;;;;;18.23;3.70;;;;;;;;;;5009182;28;20428;-77
2023/10/18 06:08:01;;;;;;;18.10;3.80;;;;;;;;;;4994233;28;20431;-77
2023/10/18 06:10:27;;;;;;;17.50;3.40;;;;;;;;;;5009352;28;20840;-77
2023/10/18 06:13:05;;;;;;;20.67;3.65;;;;;;;;;;5012808;28;20463;-76
2023/10/18 06:15:38;;;;;;;18.30;3.45;;;;;;;;;;5011037;28;20409;-76
2023/10/18 06:18:09;;;;;;;21.67;4.70;;;;;;;;;;5014888;28;20412;-77
2023/10/18 06:20:36;;;;;;;17.35;3.30;;;;;;;;;;5001483;28;20417;-77
2023/10/18 06:23:09;;;;;;;19.10;3.80;;;;;;;;;;5011525;28;20523;-77
2023/10/18 06:25:44;;;;;;;17.65;3.60;;;;;;;;;;4991686;28;20432;-77
2023/10/18 06:28:19;;;;;;;17.05;3.40;;;;;;;;;;4993609;28;20423;-75
2023/10/18 06:30:49;;;;;;;21.05;3.90;;;;;;;;;;5010060;28;20435;-78
2023/10/18 06:33:18;;;;;;;17.58;3.90;;;;;;;;;;5011117;28;20412;-77
2023/10/18 06:35:52;;;;;;;18.70;4.05;;;;;;;;;;5008471;28;20421;-77
2023/10/18 06:38:22;;;;;;;18.15;4.00;;;;;;;;;;5015676;28;20885;-76
2023/10/18 06:41:00;;;;;;;20.50;4.78;;;;;;;;;;5000615;28;20498;-76
2023/10/18 06:43:31;;;;;;;20.02;4.53;;;;;;;;;;5014837;28;20895;-77
2023/10/18 06:45:58;;;;;;;18.20;4.57;;;;;;;;;;5011175;28;20428;-76
2023/10/18 06:48:28;;;;;;;17.77;3.90;;;;;;;;;;4998198;28;20430;-77
2023/10/18 06:50:55;;;;;;;18.73;4.00;;;;;;;;;;4999294;28;20411;-75
2023/10/18 06:53:22;;;;;;;18.15;4.00;;;;;;;;;;5008067;28;20414;-75
2023/10/18 06:55:58;;;;;;;20.60;3.60;;;;;;;;;;5012078;28;20505;-76
2023/10/18 07:01:03;;;;;;;18.83;3.90;;;;;;;;;;5014094;28;20503;-76
2023/10/18 07:03:37;;;;;;;18.23;3.92;;;;;;;;;;4995748;28;20428;-76
2023/10/18 07:06:05;;;;;;;18.20;4.28;;;;;;;;;;5013876;28;20428;-76
2023/10/18 07:08:34;;;;;;;17.33;3.65;;;;;;;;;;5012766;28;20514;-76
2023/10/18 07:11:01;;;;;;;19.45;4.18;;;;;;;;;;5010405;28;20518;-77
2023/10/18 07:13:47;;;;;;;19.80;4.20;;;;;;;;;;5011334;28;20423;-77
2023/10/18 07:16:16;;;;;;;19.25;4.43;;;;;;;;;;5014634;28;20919;-76
2023/10/18 07:18:44;;;;;;;18.55;4.00;;;;;;;;;;4998643;28;20876;-76
2023/10/18 07:21:11;;;;;;;17.95;3.63;;;;;;;;;;4995306;28;20487;-78
2023/10/18 07:23:38;;;;;;;18.30;4.40;;;;;;;;;;5011720;28;20416;-76
2023/10/18 07:26:13;;;;;;;20.20;4.60;;;;;;;;;;5012641;28;20409;-76
2023/10/18 07:28:40;;;;;;;19.20;5.13;;;;;;;;;;4995534;28;20428;-76
2023/10/18 07:31:10;;;;;;;19.42;4.18;;;;;;;;;;5011484;28;20411;-77
2023/10/18 07:33:42;;;;;;;21.13;4.75;;;;;;;;;;5011173;28;20416;-77
2023/10/18 07:36:09;;;;;;;18.75;4.28;;;;;;;;;;5013601;28;20487;-77
2023/10/18 07:38:38;;;;;;;18.40;4.03;;;;;;;;;;5011013;28;20421;-77
2023/10/18 07:41:07;;;;;;;18.10;4.78;;;;;;;;;;4994360;28;20414;-77
2023/10/18 07:43:35;;;;;;;18.48;4.03;;;;;;;;;;5011433;28;20495;-76
2023/10/18 07:46:09;;;;;;;19.30;4.40;;;;;;;;;;5012385;28;20457;-76
2023/10/18 07:48:37;;;;;;;20.42;4.72;;;;;;;;;;4994612;28;20929;-76
2023/10/18 07:51:23;;;;;;;17.90;4.20;;;;;;;;;;4988961;28;20413;-76
2023/10/18 07:53:53;;;;;;;18.67;4.40;;;;;;;;;;5010075;28;20413;-78
2023/10/18 07:56:26;;;;;;;19.17;4.45;;;;;;;;;;5010986;28;20409;-77
2023/10/18 07:58:53;;;;;;;20.70;4.53;;;;;;;;;;4992004;28;20500;-80
2023/10/18 08:04:22;;;;;;;19.00;4.10;;;;;;;;;;4938159;29;20418;-78
2023/10/18 08:06:50;;;;;;;19.20;4.60;;;;;;;;;;5001151;28;20428;-78
2023/10/18 08:09:28;;;;;;;18.83;4.70;;;;;;;;;;5009161;28;20524;-79
2023/10/18 08:11:55;;;;;;;20.70;5.68;;;;;;;;;;4993644;28;20415;-78
2023/10/18 08:14:24;;;;;;;19.48;5.10;;;;;;;;;;4993235;28;20415;-77
2023/10/18 08:17:08;;;;;;;19.83;4.70;;;;;;;;;;4995135;28;20412;-78
2023/10/18 08:19:45;;;;;;;24.40;4.72;;;;;;;;;;4995405;28;20405;-77
2023/10/18 08:24:51;;;;;;;21.35;5.45;;;;;;;;;;4997733;28;20416;-77
2023/10/18 08:27:18;;;;;;;19.58;4.90;;;;;;;;;;4995471;28;20820;-79
2023/10/18 08:29:52;;;;;;;20.20;4.40;;;;;;;;;;4999066;28;20424;-77
2023/10/18 08:32:29;;;;;;;19.45;5.65;;;;;;;;;;5007515;28;20412;-77
2023/10/18 08:35:05;;;;;;;18.98;4.68;;;;;;;;;;4993499;28;20512;-77
2023/10/18 08:37:36;;;;;;;19.08;4.60;;;;;;;;;;5009962;28;20408;-77
2023/10/18 08:40:09;;;;;;;20.20;4.87;;;;;;;;;;5009019;28;20405;-77
2023/10/18 08:42:42;;;;;;;18.17;4.57;;;;;;;;;;5008975;28;20495;-78
2023/10/18 08:45:19;;;;;;;18.35;4.50;;;;;;;;;;5010587;28;20520;-79
2023/10/18 08:47:49;;;;;;;22.90;5.10;;;;;;;;;;4999218;28;20504;-78
2023/10/18 08:50:17;;;;;;;22.38;5.38;;;;;;;;;;4992504;28;20762;-79
2023/10/18 08:52:48;;;;;;;22.70;5.57;;;;;;;;;;5011634;28;20483;-80
2023/10/18 08:55:22;;;;;;;21.15;4.70;;;;;;;;;;5007805;28;20430;-78
2023/10/18 08:57:55;;;;;;;21.55;5.47;;;;;;;;;;5000742;28;20416;-79
2023/10/18 09:02:53;;;;;;;20.80;5.40;;;;;;;;;;5012431;28;20881;-79
2023/10/18 09:05:22;;;;;;;19.40;4.75;;;;;;;;;;4992862;28;20408;-79
2023/10/18 09:07:51;;;;;;;19.08;4.72;;;;;;;;;;4992024;28;20953;-78
2023/10/18 09:18:30;;;;;;;18.63;4.63;;;;;;;;;;5011977;28;20491;-78
2023/10/18 09:23:40;;;;;;;18.60;4.50;;;;;;;;;;5010251;28;20401;-76
2023/10/18 09:26:13;;;;;;;19.17;5.15;;;;;;;;;;4991320;28;20822;-76
2023/10/18 09:28:41;;;;;;;19.00;4.57;;;;;;;;;;4995582;28;20440;-76
2023/10/18 09:31:11;;;;;;;19.40;5.33;;;;;;;;;;5010009;28;20404;-76
2023/10/18 09:33:38;;;;;;;17.83;4.20;;;;;;;;;;5008414;28;21133;-79
2023/10/18 09:36:18;;;;;;;19.38;4.50;;;;;;;;;;5000824;28;20773;-77
2023/10/18 09:38:47;;;;;;;19.55;4.80;;;;;;;;;;4994277;28;20967;-79
2023/10/18 09:41:14;;;;;;;18.65;4.88;;;;;;;;;;5008582;28;20979;-79
2023/10/18 09:43:41;;;;;;;19.05;4.13;;;;;;;;;;5010319;28;21183;-78
2023/10/18 09:46:10;;;;;;;19.20;4.50;;;;;;;;;;4992524;28;20412;-78
2023/10/18 09:48:39;;;;;;;18.17;4.30;;;;;;;;;;5010300;28;20471;-77
2023/10/18 09:51:06;;;;;;;18.40;4.07;;;;;;;;;;4990675;28;20424;-80
2023/10/18 09:53:34;;;;;;;19.10;5.00;;;;;;;;;;4992452;28;20405;-80
2023/10/18 09:56:03;;;;;;;17.80;4.00;;;;;;;;;;4991682;28;20500;-79
2023/10/18 09:58:33;;;;;;;18.73;4.35;;;;;;;;;;5010558;28;20411;-78
2023/10/18 10:01:14;;;;;;;18.08;4.43;;;;;;;;;;5009677;28;20413;-78
2023/10/18 10:03:50;;;;;;;19.70;5.00;;;;;;;;;;5010965;28;20416;-79
2023/10/18 10:06:18;;;;;;;18.45;4.10;;;;;;;;;;5006301;28;20747;-78
2023/10/18 10:08:47;;;;;;;19.20;4.35;;;;;;;;;;4990786;28;20499;-79
2023/10/18 10:11:19;;;;;;;17.50;4.38;;;;;;;;;;4991587;28;20483;-79
2023/10/18 10:13:49;;;;;;;20.00;4.30;;;;;;;;;;5004669;28;20516;-77
2023/10/18 10:16:18;;;;;;;18.10;4.10;;;;;;;;;;4991637;28;20423;-79
2023/10/18 10:18:47;;;;;;;17.77;4.45;;;;;;;;;;4991059;28;21117;-78
2023/10/18 10:21:21;;;;;;;18.05;3.90;;;;;;;;;;4984013;28;20419;-76
2023/10/18 10:23:50;;;;;;;18.35;3.83;;;;;;;;;;4994790;28;20428;-77
2023/10/18 10:26:36;;;;;;;17.35;3.72;;;;;;;;;;4991873;28;21209;-78
2023/10/18 10:31:51;;;;;;;18.50;4.60;;;;;;;;;;4991703;28;20467;-78
2023/10/18 10:34:24;;;;;;;17.33;3.80;;;;;;;;;;5005731;28;20443;-78
2023/10/18 10:36:52;;;;;;;17.38;3.80;;;;;;;;;;5007488;28;20423;-76
2023/10/18 10:39:23;;;;;;;17.83;3.70;;;;;;;;;;4981489;28;20508;-80
2023/10/18 10:41:52;;;;;;;17.10;3.70;;;;;;;;;;5005277;28;21003;-79
2023/10/18 10:44:23;;;;;;;19.48;3.83;;;;;;;;;;5009891;28;20505;-77
2023/10/18 10:46:53;;;;;;;18.67;3.65;;;;;;;;;;5008924;28;20409;-78
2023/10/18 10:49:41;;;;;;;17.40;3.70;;;;;;;;;;4991670;28;20428;-78
2023/10/18 10:52:08;;;;;;;17.48;3.53;;;;;;;;;;5007673;28;20532;-79
2023/10/18 10:54:37;;;;;;;16.35;3.38;;;;;;;;;;5007646;28;20416;-79
2023/10/18 10:57:09;;;;;;;16.45;3.33;;;;;;;;;;5012545;28;20408;-79
2023/10/18 10:59:36;;;;;;;18.27;3.80;;;;;;;;;;4992186;28;20500;-79
2023/10/18 11:02:08;;;;;;;17.40;3.45;;;;;;;;;;5012558;28;20507;-78
2023/10/18 11:04:57;;;;;;;17.97;3.30;;;;;;;;;;4992112;28;20421;-78
2023/10/18 11:07:25;;;;;;;17.38;2.95;;;;;;;;;;4976505;28;20408;-78
2023/10/18 11:09:59;;;;;;;17.60;3.50;;;;;;;;;;5009995;28;20442;-78
2023/10/18 11:12:29;;;;;;;17.23;3.10;;;;;;;;;;5009501;28;20487;-78
2023/10/18 11:14:58;;;;;;;15.90;2.90;;;;;;;;;;5008720;28;20412;-79
2023/10/18 11:17:24;;;;;;;17.67;3.50;;;;;;;;;;5007403;28;20958;-80
2023/10/18 11:19:53;;;;;;;17.02;2.83;;;;;;;;;;4992068;28;20812;-79
2023/10/18 11:22:20;;;;;;;16.55;2.70;;;;;;;;;;5002160;28;20523;-79
2023/10/18 11:24:49;;;;;;;17.30;3.20;;;;;;;;;;5013185;28;20422;-79
2023/10/18 11:27:17;;;;;;;16.90;3.00;;;;;;;;;;5014140;28;20414;-79
2023/10/18 11:29:45;;;;;;;15.68;2.50;;;;;;;;;;5013602;28;20452;-79
2023/10/18 11:32:18;;;;;;;17.95;3.45;;;;;;;;;;5013139;28;20420;-78
2023/10/18 11:34:45;;;;;;;16.75;2.70;;;;;;;;;;5011741;28;20819;-79
2023/10/18 11:37:23;;;;;;;16.55;3.17;;;;;;;;;;5011638;28;20432;-78
2023/10/18 11:39:49;;;;;;;17.58;2.60;;;;;;;;;;4995657;28;20507;-79
2023/10/18 11:42:17;;;;;;;18.00;2.92;;;;;;;;;;4998991;28;20416;-78
2023/10/18 11:44:52;;;;;;;15.93;2.40;;;;;;;;;;5014325;28;20444;-76
2023/10/18 11:47:21;;;;;;;18.35;2.40;;;;;;;;;;5001506;28;20401;-79
2023/10/18 11:49:54;;;;;;;17.55;2.70;;;;;;;;;;4994868;28;20429;-77
2023/10/18 11:52:21;;;;;;;17.00;2.25;;;;;;;;;;4994801;28;20510;-79
2023/10/18 11:54:52;;;;;;;17.13;2.67;;;;;;;;;;5009132;28;20832;-78
2023/10/18 11:57:25;;;;;;;15.20;2.30;;;;;;;;;;4994770;28;20773;-80
2023/10/18 11:59:54;;;;;;;18.02;2.97;;;;;;;;;;5011598;28;20412;-77
2023/10/18 12:02:27;;;;;;;16.00;2.70;;;;;;;;;;4995737;28;20416;-78
2023/10/18 12:04:55;;;;;;;16.40;3.00;;;;;;;;;;5002293;28;20437;-79
2023/10/18 12:07:22;;;;;;;16.90;2.70;;;;;;;;;;4994548;28;20424;-77
2023/10/18 12:09:52;;;;;;;17.80;2.40;;;;;;;;;;4995229;28;20478;-78
2023/10/18 12:12:19;;;;;;;15.70;2.40;;;;;;;;;;5013206;28;20408;-80
2023/10/18 12:14:46;;;;;;;16.38;2.70;;;;;;;;;;5012455;28;20475;-80
2023/10/18 12:17:14;;;;;;;16.80;2.53;;;;;;;;;;5016260;28;20507;-76
2023/10/18 12:19:41;;;;;;;18.10;2.60;;;;;;;;;;5012386;28;21275;-77
2023/10/18 12:22:15;;;;;;;17.33;2.80;;;;;;;;;;4998014;28;20487;-76
2023/10/18 12:24:41;;;;;;;17.00;2.50;;;;;;;;;;5001910;28;20943;-76
2023/10/18 12:29:53;;;;;;;16.70;2.80;;;;;;;;;;4994548;28;20428;-79
2023/10/18 12:32:25;;;;;;;17.80;2.80;;;;;;;;;;5010551;28;20451;-77
2023/10/18 12:34:58;;;;;;;15.90;2.22;;;;;;;;;;4993647;28;20451;-78
2023/10/18 12:37:25;;;;;;;16.25;2.60;;;;;;;;;;4996386;28;20417;-78
2023/10/18 12:39:52;;;;;;;15.73;2.70;;;;;;;;;;5011806;28;20901;-78
2023/10/18 12:42:21;;;;;;;17.65;2.80;;;;;;;;;;4992793;28;20502;-79
2023/10/18 12:44:48;;;;;;;17.63;2.28;;;;;;;;;;5010264;28;20927;-76
2023/10/18 12:47:19;;;;;;;16.60;2.30;;;;;;;;;;4983485;28;20408;-77
2023/10/18 12:49:50;;;;;;;15.30;2.20;;;;;;;;;;4993209;28;20424;-77
2023/10/18 12:55:31;;;;;;;16.65;1.90;;;;;;;;;;4989668;28;20497;-79
2023/10/18 12:57:52;;;;;;;17.05;2.28;;;;;;;;;;5012448;28;20448;-78
2023/10/18 13:00:18;;;;;;;16.63;2.40;;;;;;;;;;4993160;28;20840;-79
2023/10/18 13:03:15;;;;;;;16.50;2.08;;;;;;;;;;4995051;28;20424;-80
2023/10/18 13:05:43;;;;;;;17.53;2.27;;;;;;;;;;4993499;28;20509;-78
2023/10/18 13:08:55;;;;;;;16.55;2.90;;;;;;;;;;5011520;28;20411;-78
2023/10/18 13:13:32;;;;;;;17.93;2.30;;;;;;;;;;5010555;28;20441;-78
2023/10/18 13:15:59;;;;;;;17.30;2.60;;;;;;;;;;5010683;28;20451;-78
2023/10/18 13:18:26;;;;;;;16.58;2.20;;;;;;;;;;5012626;28;20877;-78
2023/10/18 13:21:05;;;;;;;15.57;2.30;;;;;;;;;;4993589;28;20416;-78
2023/10/18 13:23:32;;;;;;;15.60;2.20;;;;;;;;;;4992231;28;20522;-79
2023/10/18 13:25:58;;;;;;;17.65;2.10;;;;;;;;;;4992204;28;20409;-78
2023/10/18 13:28:33;;;;;;;17.90;2.60;;;;;;;;;;5012411;28;20412;-78
2023/10/18 13:31:04;;;;;;;15.20;2.40;;;;;;;;;;5007886;28;20431;-78
2023/10/18 13:33:31;;;;;;;17.05;2.10;;;;;;;;;;5010521;28;20405;-78
2023/10/18 13:35:59;;;;;;;17.20;2.47;;;;;;;;;;4992923;28;20412;-78
2023/10/18 13:38:26;;;;;;;17.40;2.00;;;;;;;;;;4985912;28;20498;-78
2023/10/18 13:40:52;;;;;;;15.60;2.45;;;;;;;;;;4993477;28;20405;-78
2023/10/18 13:43:19;;;;;;;17.27;2.33;;;;;;;;;;5010127;28;20960;-78
2023/10/18 13:45:55;;;;;;;16.42;2.30;;;;;;;;;;5013971;28;20427;-78
2023/10/18 13:48:24;;;;;;;14.80;2.00;;;;;;;;;;5010830;28;20416;-79
2023/10/18 13:50:58;;;;;;;15.00;2.10;;;;;;;;;;4991870;28;20442;-78
2023/10/18 13:53:26;;;;;;;15.63;2.00;;;;;;;;;;5010231;28;20408;-80
2023/10/18 13:55:56;;;;;;;15.32;2.30;;;;;;;;;;5011777;28;20412;-81
2023/10/18 13:58:23;;;;;;;17.02;2.40;;;;;;;;;;5008818;28;20781;-80
2023/10/18 14:00:51;;;;;;;14.85;2.05;;;;;;;;;;5011352;28;20489;-79
2023/10/18 14:03:19;;;;;;;17.10;2.40;;;;;;;;;;4999745;28;20818;-79
2023/10/18 14:05:46;;;;;;;18.90;3.00;;;;;;;;;;5007515;28;20521;-78
2023/10/18 14:08:16;;;;;;;18.83;2.72;;;;;;;;;;4995190;28;20420;-78
2023/10/18 14:10:45;;;;;;;15.70;2.37;;;;;;;;;;4993141;28;20432;-78
2023/10/18 14:13:12;;;;;;;16.80;2.15;;;;;;;;;;4975929;28;20907;-78
2023/10/18 14:15:38;;;;;;;16.38;2.22;;;;;;;;;;4993393;28;20478;-77
2023/10/18 14:18:05;;;;;;;15.70;2.20;;;;;;;;;;5013339;28;20507;-77
2023/10/18 14:20:36;;;;;;;15.95;2.10;;;;;;;;;;4992026;28;20431;-79
2023/10/18 14:23:07;;;;;;;15.15;2.10;;;;;;;;;;5008588;28;20437;-78
2023/10/18 14:25:37;;;;;;;15.20;2.22;;;;;;;;;;5008754;28;20907;-78
2023/10/18 14:28:05;;;;;;;15.85;2.58;;;;;;;;;;4996515;28;20459;-78
2023/10/18 14:30:34;;;;;;;15.85;2.30;;;;;;;;;;5022177;28;20420;-78
2023/10/18 14:33:00;;;;;;;15.23;2.15;;;;;;;;;;5011688;28;20420;-78
2023/10/18 14:35:27;;;;;;;16.00;2.10;;;;;;;;;;4982879;28;20777;-78
2023/10/18 14:37:54;;;;;;;16.95;2.45;;;;;;;;;;5011926;28;20412;-79
2023/10/18 14:40:23;;;;;;;18.50;2.50;;;;;;;;;;4992177;28;20490;-78
2023/10/18 14:42:50;;;;;;;15.90;2.42;;;;;;;;;;5008342;28;20892;-78
2023/10/18 14:45:18;;;;;;;15.60;2.10;;;;;;;;;;5011547;28;20409;-78
2023/10/18 14:47:45;;;;;;;16.80;2.20;;;;;;;;;;4992532;28;20956;-77
2023/10/18 14:50:11;;;;;;;16.63;2.50;;;;;;;;;;4989509;28;20872;-75
2023/10/18 14:52:42;;;;;;;15.80;2.20;;;;;;;;;;5011308;28;20939;-77
2023/10/18 14:55:11;;;;;;;16.08;2.17;;;;;;;;;;4991628;28;20412;-77
2023/10/18 14:57:40;;;;;;;17.45;2.40;;;;;;;;;;5013820;28;20404;-77
2023/10/18 15:00:19;;;;;;;18.38;2.70;;;;;;;;;;5012744;28;20408;-76
2023/10/18 15:02:50;;;;;;;15.95;2.50;;;;;;;;;;5013690;28;20408;-76
2023/10/18 15:05:23;;;;;;;16.58;2.50;;;;;;;;;;5011751;28;20897;-76
2023/10/18 15:07:53;;;;;;;17.27;2.20;;;;;;;;;;5011753;28;20573;-76
2023/10/18 15:10:19;;;;;;;16.40;2.50;;;;;;;;;;4995805;28;20477;-76
2023/10/18 15:12:46;;;;;;;17.90;2.30;;;;;;;;;;5013979;28;20440;-76
2023/10/18 15:15:14;;;;;;;15.90;2.47;;;;;;;;;;4995370;28;20796;-76
2023/10/18 15:17:42;;;;;;;17.15;2.80;;;;;;;;;;5014283;28;20405;-77
2023/10/18 15:20:12;;;;;;;15.60;2.50;;;;;;;;;;5013368;28;20896;-75
2023/10/18 15:22:38;;;;;;;16.33;2.60;;;;;;;;;;5012960;28;20454;-78
2023/10/18 15:25:05;;;;;;;17.88;2.50;;;;;;;;;;4994376;28;20500;-77
2023/10/18 15:27:32;;;;;;;17.88;2.80;;;;;;;;;;4993148;28;20465;-75
2023/10/18 15:30:04;;;;;;;17.98;2.30;;;;;;;;;;4995388;28;20416;-77
2023/10/18 15:32:31;;;;;;;17.03;2.20;;;;;;;;;;5013099;28;20850;-77
2023/10/18 15:34:58;;;;;;;15.80;2.20;;;;;;;;;;5011017;28;20421;-78
2023/10/18 15:37:27;;;;;;;16.80;2.60;;;;;;;;;;4995051;28;20405;-76